Terminal Aerodrome Forecast
Issued by NWS North Platte, NE

Current Version | Previous Version | Text Only | Print | Product List | Glossary On
Versions: 1 2 3 4 5 6 7 8 9 10 11 12 13 14 15 16 17
663
FTUS43 KLBF 112320
TAFLBF
TAF
KLBF 112320Z 1200/1224 32007KT P6SM SCT200
     FM120900 32006KT P6SM SCT003 BKN025
     FM121100 32007KT P6SM OVC003
     FM121400 33006KT P6SM OVC008
     FM121700 02007KT P6SM OVC012
     FM121900 05007KT P6SM OVC020=

USA.gov is the U.S. government's official web portal to all federal, state and local government web resources and services.